createdAt,value
2018-02-22T00:01:35.887Z,18.08
2018-02-22T00:04:03.350Z,17.15
2018-02-22T00:06:30.774Z,18.20
2018-02-22T00:08:58.194Z,18.30
2018-02-22T00:11:25.606Z,18.67
2018-02-22T00:13:53.058Z,17.10
2018-02-22T00:16:20.515Z,18.37
2018-02-22T00:18:47.985Z,19.85
2018-02-22T00:21:15.416Z,17.42
2018-02-22T00:23:43.681Z,18.12
2018-02-22T00:26:11.093Z,19.00
2018-02-22T00:28:38.520Z,18.48
2018-02-22T00:31:05.930Z,17.48
2018-02-22T00:33:33.349Z,19.12
2018-02-22T00:36:00.782Z,18.15
2018-02-22T00:38:28.249Z,17.45
2018-02-22T00:40:56.451Z,17.85
2018-02-22T00:43:23.889Z,18.27
2018-02-22T00:45:51.306Z,17.75
2018-02-22T00:48:18.736Z,20.00
2018-02-22T00:50:46.149Z,18.33
2018-02-22T00:53:13.574Z,17.58
2018-02-22T00:55:40.982Z,17.90
2018-02-22T00:58:08.386Z,17.83
2018-02-22T01:00:35.797Z,17.42
2018-02-22T01:03:03.205Z,18.50
2018-02-22T01:05:30.732Z,18.62
2018-02-22T01:07:58.146Z,19.48
2018-02-22T01:10:26.383Z,17.25
2018-02-22T01:12:53.793Z,18.60
2018-02-22T01:15:21.244Z,18.30
2018-02-22T01:17:48.693Z,18.12
2018-02-22T01:20:16.206Z,18.48
2018-02-22T01:22:43.602Z,16.27
2018-02-22T01:25:11.825Z,16.65
2018-02-22T01:27:39.233Z,19.67
2018-02-22T01:30:06.666Z,18.45
2018-02-22T01:32:34.106Z,18.95
2018-02-22T01:35:01.524Z,18.95
2018-02-22T01:37:29.024Z,20.15
2018-02-22T01:39:57.237Z,17.23
2018-02-22T01:42:24.661Z,19.35
2018-02-22T01:44:52.071Z,19.20
2018-02-22T01:47:19.530Z,19.90
2018-02-22T01:49:46.949Z,20.08
2018-02-22T01:52:14.406Z,19.27
2018-02-22T01:54:43.381Z,20.17
2018-02-22T01:57:11.633Z,20.92
2018-02-22T01:59:39.044Z,21.65
2018-02-22T02:02:07.249Z,20.25
2018-02-22T02:04:35.410Z,20.60
2018-02-22T02:07:02.851Z,16.75
2018-02-22T02:09:30.943Z,19.30
2018-02-22T02:11:59.129Z,20.52
2018-02-22T02:14:26.789Z,19.30
2018-02-22T02:16:54.272Z,19.52
2018-02-22T02:19:21.721Z,20.67
2018-02-22T02:21:49.136Z,19.70
2018-02-22T02:24:16.543Z,20.00
2018-02-22T02:26:43.980Z,20.58
2018-02-22T02:29:11.402Z,19.02
2018-02-22T02:31:38.818Z,18.92
2018-02-22T02:34:07.043Z,19.75
2018-02-22T02:36:34.470Z,20.40
2018-02-22T02:39:01.880Z,19.98
2018-02-22T02:41:29.301Z,18.73
2018-02-22T02:43:56.702Z,19.15
2018-02-22T02:46:24.115Z,19.48
2018-02-22T02:48:51.536Z,20.45
2018-02-22T02:51:18.964Z,19.30
2018-02-22T02:53:46.399Z,18.73
2018-02-22T02:56:14.578Z,18.85
2018-02-22T02:58:42.026Z,18.42
2018-02-22T03:01:09.495Z,20.10
2018-02-22T03:03:36.960Z,19.67
2018-02-22T03:06:04.393Z,18.87
2018-02-22T03:08:31.803Z,19.10
2018-02-22T03:10:59.214Z,18.05
2018-02-22T03:13:26.633Z,18.60
2018-02-22T03:15:54.043Z,18.70
2018-02-22T03:18:22.253Z,17.25
2018-02-22T03:20:49.721Z,18.10
2018-02-22T03:23:18.027Z,18.65
2018-02-22T03:25:45.445Z,18.10
2018-02-22T03:28:12.858Z,16.80
2018-02-22T03:30:40.311Z,16.55
2018-02-22T03:33:07.729Z,17.90
2018-02-22T03:35:35.147Z,18.00
2018-02-22T03:38:02.579Z,17.23
2018-02-22T03:40:30.093Z,19.30
2018-02-22T03:42:57.505Z,16.95
2018-02-22T03:45:24.934Z,16.50
2018-02-22T03:47:52.353Z,18.12
2018-02-22T03:50:19.773Z,17.15
2018-02-22T03:52:47.227Z,19.27
2018-02-22T03:55:14.663Z,19.55
2018-02-22T03:57:42.073Z,17.80
2018-02-22T04:00:09.495Z,18.70
2018-02-22T04:02:37.669Z,18.45
2018-02-22T04:05:05.110Z,16.75
2018-02-22T04:07:32.577Z,17.20
2018-02-22T04:09:59.989Z,19.05
2018-02-22T04:12:27.417Z,15.25
2018-02-22T04:14:54.841Z,18.80
2018-02-22T04:17:23.046Z,19.58
2018-02-22T04:19:50.475Z,19.48
2018-02-22T04:22:17.882Z,18.40
2018-02-22T04:24:45.382Z,18.60
2018-02-22T04:27:12.790Z,14.48
2018-02-22T04:29:40.977Z,18.60
2018-02-22T04:32:09.183Z,19.00
2018-02-22T04:34:36.663Z,20.05
2018-02-22T04:37:04.064Z,18.12
2018-02-22T04:39:31.486Z,19.67
2018-02-22T04:41:58.910Z,19.75
2018-02-22T04:44:26.434Z,19.85
2018-02-22T04:46:53.893Z,18.75
2018-02-22T04:49:21.390Z,18.90
2018-02-22T04:51:48.797Z,20.52
2018-02-22T04:54:16.987Z,19.90
2018-02-22T04:56:44.490Z,20.30
2018-02-22T04:59:11.953Z,19.40
2018-02-22T05:45:20.818Z,18.23
2018-02-22T05:47:48.248Z,20.42
2018-02-22T05:50:16.475Z,20.83
2018-02-22T05:52:43.907Z,20.35
2018-02-22T05:55:11.388Z,23.52
2018-02-22T05:57:38.801Z,22.33
2018-02-22T06:00:06.218Z,21.52
2018-02-22T06:02:33.684Z,21.33
2018-02-22T06:05:01.065Z,20.10
2018-02-22T06:07:28.473Z,22.37
2018-02-22T06:09:55.997Z,21.77
2018-02-22T06:12:23.414Z,20.30
2018-02-22T06:14:50.830Z,21.83
2018-02-22T06:17:18.248Z,22.80
2018-02-22T06:19:45.685Z,22.20
2018-02-22T06:22:13.164Z,22.30
2018-02-22T06:24:40.572Z,20.33
2018-02-22T06:27:08.758Z,21.90
2018-02-22T06:29:36.985Z,20.40
2018-02-22T06:32:04.429Z,24.25
2018-02-22T06:34:32.623Z,20.23
2018-02-22T06:37:00.110Z,22.77
2018-02-22T06:39:27.502Z,22.02
2018-02-22T06:41:54.918Z,23.08
2018-02-22T06:44:23.117Z,21.67
2018-02-22T06:46:50.595Z,24.85
2018-02-22T06:49:18.019Z,23.40
2018-02-22T06:51:45.550Z,23.23
2018-02-22T06:54:13.016Z,24.00
2018-02-22T06:56:40.684Z,17.25
2018-02-22T06:59:08.148Z,25.80
2018-02-22T07:01:35.625Z,27.20
2018-02-22T07:04:03.045Z,26.17
2018-02-22T07:06:31.243Z,24.87
2018-02-22T07:08:59.434Z,25.17
2018-02-22T07:11:26.863Z,26.02
2018-02-22T07:13:54.297Z,27.27
2018-02-22T07:16:22.653Z,27.00
2018-02-22T07:18:50.054Z,25.33
2018-02-22T07:21:17.461Z,26.05
2018-02-22T07:23:46.423Z,23.75
2018-02-22T07:26:13.835Z,24.70
2018-02-22T07:28:41.247Z,18.48
2018-02-22T07:31:08.722Z,17.60
2018-02-22T07:33:36.869Z,18.27
2018-02-22T07:36:04.381Z,19.27
2018-02-22T07:38:31.794Z,23.17
2018-02-22T07:40:59.222Z,19.45
2018-02-22T07:43:26.650Z,21.80
2018-02-22T07:45:54.840Z,23.08
2018-02-22T07:48:23.021Z,18.08
2018-02-22T07:50:50.438Z,18.52
2018-02-22T07:53:17.850Z,25.08
2018-02-22T07:55:45.283Z,26.42
2018-02-22T07:58:12.773Z,23.77
2018-02-22T08:00:40.193Z,22.33
2018-02-22T08:03:07.599Z,26.10
2018-02-22T08:05:35.032Z,23.90
2018-02-22T08:08:02.431Z,24.95
2018-02-22T08:10:29.839Z,25.55
2018-02-22T08:12:58.054Z,26.58
2018-02-22T08:15:26.254Z,21.42
2018-02-22T08:17:53.669Z,24.87
2018-02-22T08:20:21.102Z,25.45
2018-02-22T08:22:48.541Z,27.87
2018-02-22T08:25:16.015Z,22.90
2018-02-22T08:27:44.187Z,27.60
2018-02-22T08:30:11.605Z,27.95
2018-02-22T08:32:39.018Z,28.40
2018-02-22T08:35:06.502Z,26.37
2018-02-22T08:37:33.926Z,28.40
2018-02-22T08:40:01.336Z,18.55
2018-02-22T08:42:28.769Z,25.05
2018-02-22T08:44:56.285Z,25.77
2018-02-22T08:47:23.810Z,29.20
2018-02-22T08:49:51.207Z,28.50
2018-02-22T08:52:18.738Z,28.40
2018-02-22T08:54:46.359Z,27.17
2018-02-22T08:57:13.761Z,29.60
2018-02-22T08:59:41.170Z,29.35
2018-02-22T09:02:09.355Z,29.10
2018-02-22T09:04:37.527Z,28.85
2018-02-22T09:07:04.968Z,29.42
2018-02-22T09:09:32.405Z,27.80
2018-02-22T09:11:59.818Z,27.60
2018-02-22T09:14:27.233Z,28.38
2018-02-22T09:16:54.646Z,26.48
2018-02-22T09:19:22.094Z,24.08
2018-02-22T09:21:49.504Z,26.15
2018-02-22T09:24:17.038Z,27.15
2018-02-22T09:26:44.508Z,27.40
2018-02-22T09:29:11.985Z,26.87
2018-02-22T09:31:39.435Z,23.12
2018-02-22T09:34:06.861Z,25.83
2018-02-22T09:36:34.321Z,28.08
2018-02-22T09:39:01.697Z,27.67
2018-02-22T09:41:29.214Z,27.83
2018-02-22T09:43:56.613Z,27.48
2018-02-22T09:46:24.034Z,27.30
2018-02-22T09:48:51.600Z,27.23
2018-02-22T09:51:19.052Z,14.57
2018-02-22T09:53:47.256Z,25.77
2018-02-22T09:56:14.666Z,21.50
2018-02-22T09:58:42.178Z,23.70
2018-02-22T10:01:09.612Z,26.25
2018-02-22T10:03:37.013Z,26.05
2018-02-22T10:06:05.196Z,26.12
2018-02-22T10:08:33.402Z,26.65
2018-02-22T10:11:01.547Z,25.12
2018-02-22T10:13:28.966Z,25.62
2018-02-22T10:15:56.394Z,24.60
2018-02-22T10:18:24.642Z,23.73
2018-02-22T10:20:52.074Z,27.37
2018-02-22T10:23:19.549Z,27.27
2018-02-22T10:25:46.959Z,25.67
2018-02-22T10:28:14.494Z,24.80
2018-02-22T10:30:41.914Z,26.55
2018-02-22T10:33:10.810Z,27.85
2018-02-22T10:35:38.233Z,28.48
2018-02-22T10:38:05.691Z,25.75
2018-02-22T10:40:33.110Z,25.80
2018-02-22T10:43:00.539Z,26.50
2018-02-22T10:45:28.728Z,25.85
2018-02-22T10:47:56.131Z,22.02
2018-02-22T10:50:23.557Z,23.42
2018-02-22T10:52:50.961Z,23.25
2018-02-22T10:55:18.507Z,24.30
2018-02-22T10:57:45.899Z,25.50
2018-02-22T11:00:13.335Z,24.08
2018-02-22T11:02:59.455Z,22.13
2018-02-22T11:05:26.852Z,24.08
2018-02-22T11:07:54.270Z,23.38
2018-02-22T11:10:21.690Z,18.10
2018-02-22T11:12:49.217Z,19.80
2018-02-22T11:15:17.394Z,23.15
2018-02-22T11:17:44.875Z,18.48
2018-02-22T11:20:12.273Z,18.58
2018-02-22T11:22:39.705Z,19.00
2018-02-22T11:25:07.122Z,12.55
2018-02-22T11:27:34.534Z,16.73
2018-02-22T11:30:01.965Z,16.58
2018-02-22T11:32:29.366Z,16.15
2018-02-22T11:34:56.832Z,13.50
2018-02-22T11:37:25.024Z,15.40
2018-02-22T11:39:53.219Z,17.08
2018-02-22T11:42:20.632Z,13.73
2018-02-22T11:44:48.032Z,13.03
2018-02-22T11:47:16.342Z,14.27
2018-02-22T11:49:43.797Z,14.70
2018-02-22T11:52:11.221Z,14.25
2018-02-22T11:54:38.642Z,10.52
2018-02-22T11:57:06.077Z,11.77
2018-02-22T11:59:34.257Z,11.60
2018-02-22T12:02:02.461Z,10.07
2018-02-22T12:04:29.954Z,11.02
2018-02-22T12:06:57.379Z,10.40
2018-02-22T12:09:24.894Z,9.33
2018-02-22T12:11:52.314Z,10.33
2018-02-22T12:14:19.834Z,9.93
2018-02-22T12:16:47.997Z,10.87
2018-02-22T12:19:15.458Z,14.00
2018-02-22T12:21:43.777Z,11.17
2018-02-22T12:24:11.178Z,11.60
2018-02-22T12:26:38.606Z,10.73
2018-02-22T12:31:40.662Z,10.33
2018-02-22T12:34:08.188Z,10.17
2018-02-22T12:36:35.583Z,10.23
2018-02-22T12:39:03.023Z,9.93
2018-02-22T12:41:30.433Z,9.93
2018-02-22T12:43:57.901Z,10.00
2018-02-22T12:46:25.301Z,8.70
2018-02-22T12:48:53.621Z,9.40
2018-02-22T12:51:21.024Z,7.62
2018-02-22T12:53:48.445Z,9.00
2018-02-22T12:56:15.862Z,8.77
2018-02-22T12:58:43.281Z,8.70
2018-02-22T13:01:10.697Z,8.97
2018-02-22T13:03:38.110Z,8.80
2018-02-22T13:06:06.295Z,9.17
2018-02-22T13:08:34.473Z,8.43
2018-02-22T13:11:02.668Z,8.20
2018-02-22T13:13:30.822Z,7.23
2018-02-22T13:15:58.321Z,8.80
2018-02-22T13:18:25.806Z,9.10
2018-02-22T13:20:53.285Z,7.80
2018-02-22T13:23:20.685Z,8.40
2018-02-22T13:25:48.113Z,7.10
2018-02-22T13:28:15.578Z,8.70
2018-02-22T13:30:43.047Z,8.60
2018-02-22T13:33:22.398Z,8.07
2018-02-22T13:35:49.826Z,7.70
2018-02-22T13:38:29.235Z,7.37
2018-02-22T13:40:56.658Z,8.40
2018-02-22T13:43:24.845Z,7.37
2018-02-22T13:45:53.017Z,7.57
2018-02-22T13:48:21.199Z,8.47
2018-02-22T13:51:00.662Z,9.30
2018-02-22T13:53:28.878Z,8.27
2018-02-22T13:55:56.290Z,8.07
2018-02-22T13:58:23.698Z,8.87
2018-02-22T14:01:03.062Z,7.73
2018-02-22T14:03:30.466Z,8.27
2018-02-22T14:05:57.895Z,9.40
2018-02-22T14:08:37.281Z,9.87
2018-02-22T14:11:04.718Z,9.50
2018-02-22T14:13:32.877Z,10.10
2018-02-22T14:16:01.083Z,10.83
2018-02-22T14:18:28.506Z,9.63
2018-02-22T14:20:56.017Z,9.80
2018-02-22T14:23:23.426Z,9.20
2018-02-22T14:25:50.838Z,6.40
2018-02-22T14:28:19.023Z,8.80
2018-02-22T14:30:47.228Z,8.60
2018-02-22T14:33:15.401Z,8.45
2018-02-22T14:35:42.893Z,7.35
2018-02-22T14:38:10.351Z,8.25
2018-02-22T14:40:37.782Z,8.75
2018-02-22T14:43:05.220Z,10.50
2018-02-22T14:45:32.644Z,7.80
2018-02-22T14:48:00.059Z,8.57
2018-02-22T14:50:27.473Z,7.70
2018-02-22T14:52:54.953Z,6.68
2018-02-22T14:55:23.141Z,7.60
2018-02-22T14:57:51.340Z,8.35
2018-02-22T15:00:18.753Z,8.38
2018-02-22T15:02:46.186Z,8.27
2018-02-22T15:05:13.590Z,8.45
2018-02-22T15:07:41.056Z,9.75
2018-02-22T15:10:08.482Z,7.70
2018-02-22T15:12:35.938Z,7.80
2018-02-22T15:15:03.419Z,8.52
2018-02-22T15:17:30.950Z,7.47
2018-02-22T15:19:59.169Z,7.32
2018-02-22T15:22:26.581Z,7.95
2018-02-22T15:24:53.995Z,8.15
2018-02-22T15:27:21.477Z,8.95
2018-02-22T15:29:48.953Z,9.48
2018-02-22T15:32:16.393Z,7.80
2018-02-22T15:34:44.582Z,9.02
2018-02-22T15:37:11.999Z,8.05
2018-02-22T15:39:39.413Z,7.80
2018-02-22T15:42:06.834Z,7.15
2018-02-22T15:44:34.248Z,6.50
2018-02-22T15:47:02.413Z,7.90
2018-02-22T15:49:30.600Z,8.13
2018-02-22T15:51:58.021Z,7.53
2018-02-22T15:54:25.433Z,8.15
2018-02-22T15:56:52.846Z,9.18
2018-02-22T15:59:20.266Z,8.50
2018-02-22T16:01:48.456Z,8.00
2018-02-22T16:04:15.982Z,8.90
2018-02-22T16:06:43.389Z,7.50
2018-02-22T16:09:10.813Z,7.43
2018-02-22T16:11:38.214Z,6.78
2018-02-22T16:14:05.747Z,7.35
2018-02-22T16:16:33.149Z,7.60
2018-02-22T16:19:00.554Z,7.60
2018-02-22T16:21:28.974Z,7.85
2018-02-22T16:23:56.366Z,8.48
2018-02-22T16:26:23.786Z,8.30
2018-02-22T16:28:51.972Z,6.68
2018-02-22T16:31:19.445Z,8.75
2018-02-22T16:33:46.861Z,6.60
2018-02-22T16:36:14.270Z,7.50
2018-02-22T16:38:42.466Z,4.20
2018-02-22T16:41:09.877Z,7.82
2018-02-22T16:43:37.290Z,7.60
2018-02-22T16:46:05.489Z,6.93
2018-02-22T16:48:33.644Z,8.38
2018-02-22T16:51:01.834Z,8.35
2018-02-22T16:53:29.262Z,8.43
2018-02-22T16:55:56.678Z,7.47
2018-02-22T16:58:24.890Z,7.20
2018-02-22T17:00:52.308Z,8.93
2018-02-22T17:03:19.737Z,9.00
2018-02-22T17:05:47.167Z,10.27
2018-02-22T17:08:15.386Z,9.80
2018-02-22T17:10:42.825Z,9.95
2018-02-22T17:13:10.987Z,6.07
2018-02-22T17:15:38.402Z,10.82
2018-02-22T17:18:05.814Z,11.05
2018-02-22T17:20:33.243Z,10.85
2018-02-22T17:23:00.715Z,10.55
2018-02-22T17:25:27.641Z,9.32
2018-02-22T17:28:01.675Z,11.05
2018-02-22T17:30:35.659Z,11.30
2018-02-22T17:33:03.060Z,7.40
2018-02-22T17:38:43.781Z,9.80
2018-02-22T17:41:11.268Z,11.48
2018-02-22T17:43:38.627Z,11.65
2018-02-22T17:46:06.077Z,11.88
2018-02-22T17:48:34.269Z,11.25
2018-02-22T17:51:02.450Z,12.20
2018-02-22T17:53:30.621Z,12.85
2018-02-22T17:55:58.806Z,14.52
2018-02-22T17:58:26.261Z,12.68
2018-02-22T18:00:54.042Z,13.60
2018-02-22T18:03:21.448Z,14.13
2018-02-22T18:05:48.870Z,13.05
2018-02-22T18:08:16.417Z,12.18
2018-02-22T18:10:43.854Z,14.23
2018-02-22T18:13:11.382Z,15.73
2018-02-22T18:15:38.808Z,15.10
2018-02-22T18:18:06.210Z,15.60
2018-02-22T18:20:33.651Z,14.07
2018-02-22T18:23:01.059Z,16.58
2018-02-22T18:25:28.470Z,18.12
2018-02-22T18:27:55.932Z,16.85
2018-02-22T18:30:24.093Z,15.35
2018-02-22T18:32:51.599Z,16.80
2018-02-22T18:35:19.009Z,16.50
2018-02-22T18:37:52.202Z,16.00
2018-02-22T18:40:25.222Z,17.62
2018-02-22T18:42:52.646Z,17.70
2018-02-22T18:45:20.074Z,16.87
2018-02-22T18:47:48.301Z,14.65
2018-02-22T18:50:15.759Z,17.15
2018-02-22T18:52:43.166Z,16.62
2018-02-22T18:55:10.592Z,16.00
2018-02-22T18:57:38.055Z,15.88
2018-02-22T19:00:05.537Z,18.00
2018-02-22T19:02:32.958Z,17.33
2018-02-22T19:05:00.374Z,17.55
2018-02-22T19:07:27.785Z,17.45
2018-02-22T19:09:55.205Z,17.70
2018-02-22T19:12:22.644Z,17.58
2018-02-22T19:14:50.834Z,19.17
2018-02-22T19:17:19.011Z,18.48
2018-02-22T19:19:47.199Z,18.30
2018-02-22T19:22:15.406Z,19.55
2018-02-22T19:24:42.833Z,19.02
2018-02-22T19:27:10.254Z,19.17
2018-02-22T19:29:37.723Z,18.83
2018-02-22T19:32:05.135Z,18.15
2018-02-22T19:34:32.553Z,17.83
2018-02-22T19:36:59.980Z,19.30
2018-02-22T19:39:27.486Z,20.62
2018-02-22T19:41:54.895Z,20.45
2018-02-22T19:44:22.327Z,18.90
2018-02-22T19:46:50.505Z,20.20
2018-02-22T19:49:18.013Z,21.05
2018-02-22T19:51:45.426Z,21.33
2018-02-22T19:54:13.628Z,16.48
2018-02-22T19:56:41.039Z,20.20
2018-02-22T19:59:08.466Z,22.52
2018-02-22T20:01:36.022Z,22.02
2018-02-22T20:05:59.394Z,22.08
2018-02-22T20:08:26.925Z,22.10
2018-02-22T20:10:54.383Z,22.10
2018-02-22T20:13:23.507Z,23.30
2018-02-22T20:15:50.921Z,23.50
2018-02-22T20:18:18.334Z,23.63
2018-02-22T20:20:45.762Z,19.90
2018-02-22T20:23:13.943Z,23.23
2018-02-22T20:25:42.119Z,25.90
2018-02-22T20:28:09.634Z,25.67
2018-02-22T20:30:37.058Z,23.77
2018-02-22T20:33:04.467Z,26.60
2018-02-22T20:35:31.943Z,25.80
2018-02-22T20:38:00.105Z,27.30
2018-02-22T20:40:28.290Z,26.77
2018-02-22T20:42:56.495Z,23.58
2018-02-22T20:45:23.958Z,27.47
2018-02-22T20:47:51.378Z,29.53
2018-02-22T20:50:18.916Z,26.08
2018-02-22T20:52:52.053Z,29.80
2018-02-22T20:55:23.389Z,26.70
2018-02-22T20:57:50.806Z,28.20
2018-02-22T21:00:18.210Z,27.53
2018-02-22T21:02:45.629Z,27.10
2018-02-22T21:05:13.094Z,30.27
2018-02-22T21:07:40.609Z,26.90
2018-02-22T21:10:08.772Z,29.00
2018-02-22T21:12:36.941Z,29.42
2018-02-22T21:15:04.367Z,30.67
2018-02-22T21:17:31.787Z,27.07
2018-02-22T21:20:00.413Z,26.80
2018-02-22T21:22:28.562Z,29.63
2018-02-22T21:24:56.882Z,27.47
2018-02-22T21:27:25.238Z,30.55
2018-02-22T21:29:52.852Z,29.27
2018-02-22T21:32:20.318Z,27.83
2018-02-22T21:34:48.500Z,24.80
2018-02-22T21:37:15.902Z,29.53
2018-02-22T21:39:43.323Z,28.07
2018-02-22T21:42:10.751Z,27.62
2018-02-22T21:44:38.168Z,28.10
2018-02-22T21:47:05.592Z,30.57
2018-02-22T21:49:33.319Z,28.60
2018-02-22T21:52:01.503Z,28.97
2018-02-22T21:54:28.918Z,41.90
2018-02-22T21:56:56.501Z,30.33
2018-02-22T21:59:24.830Z,26.67
2018-02-22T22:01:52.243Z,29.13
2018-02-22T22:04:19.720Z,30.07
2018-02-22T22:06:47.141Z,27.63
2018-02-22T22:09:14.607Z,29.80
2018-02-22T22:11:42.008Z,28.48
2018-02-22T22:14:09.423Z,30.53
2018-02-22T22:16:37.610Z,30.87
2018-02-22T22:19:05.018Z,30.90
2018-02-22T22:21:32.453Z,27.43
2018-02-22T22:23:59.879Z,31.67
2018-02-22T22:26:27.285Z,28.50
2018-02-22T22:28:55.959Z,29.37
2018-02-22T22:31:23.385Z,30.53
2018-02-22T22:33:50.826Z,28.20
2018-02-22T22:36:18.237Z,31.05
2018-02-22T22:38:45.676Z,27.70
2018-02-22T22:41:13.093Z,31.33
2018-02-22T22:43:40.498Z,30.50
2018-02-22T22:46:07.913Z,30.47
2018-02-22T22:48:36.147Z,30.13
2018-02-22T22:51:03.577Z,28.15
2018-02-22T22:53:30.994Z,28.73
2018-02-22T22:55:58.454Z,31.20
2018-02-22T22:58:25.866Z,30.80
2018-02-22T23:00:53.289Z,28.43
2018-02-22T23:03:21.585Z,29.10
2018-02-22T23:05:48.989Z,31.60
2018-02-22T23:08:16.412Z,30.00
2018-02-22T23:10:43.878Z,28.90
2018-02-22T23:13:11.370Z,30.83
2018-02-22T23:15:38.823Z,32.08
2018-02-22T23:18:06.992Z,28.53
2018-02-22T23:20:35.186Z,29.73
2018-02-22T23:23:02.598Z,29.50
2018-02-22T23:25:30.015Z,30.40
2018-02-22T23:27:58.193Z,29.40
2018-02-22T23:30:26.806Z,30.20
2018-02-22T23:32:54.214Z,27.90
2018-02-22T23:35:21.626Z,25.57
2018-02-22T23:37:49.826Z,31.62
2018-02-22T23:40:23.789Z,30.13
2018-02-22T23:42:51.210Z,26.75
2018-02-22T23:45:19.442Z,28.00
2018-02-22T23:47:46.826Z,29.80
2018-02-22T23:50:14.261Z,31.10
2018-02-22T23:52:41.713Z,30.53
2018-02-22T23:55:09.166Z,29.77
2018-02-22T23:57:36.684Z,31.40
